Colebrook, Connecticut
Current Conditions -  °F | °C
As of 5:05 AM on Sunday 21 Dec 2014 (Local Time) from KBDL Reporting Station
Light Snow Light Snow  
Wind Chill: -4°   Ceiling: 2300
Heat Index: -1°   Visibility: 5mi
Dew Point: -2°   Wind: 6mph
Humidity: 89%   Direction: 350°N
Pressure: 30.27"   Gusts: NA
Location:  41.99°N, 73.1°W
Report Text: KBDL 211005Z 35005KT 5SM -SN BR FEW007 OVC023 M01/M02 A3027 RMK AO2 P0000 T10061022 $
Loading
Personal Weather Stations






























Interactive Weather Map New forecast layout! Learn more

10-Day Weather Forecast

Advertisements
Track Severe Weather on mobile